Terminal Aerodrome Forecast
Issued by NWS Duluth, MN

Home | Current Version | Previous Version | Text Only | Print | Product List | Glossary On
Versions: 1 2 3 4 5 6 7 8 9 10 11 12 13 14 15 16 17 18 19 20 21 22 23 24 25 26 27 28 29 30 31 32 33 34 35 36 37 38
000
FTUS43 KDLH 221100 RRA
TAFDLH
TAF
KDLH 221141Z 2212/2312 00000KT 1/4SM -DZ FG VCSH OVC002
      TEMPO 2212/2214 2SM BR OVC004
     FM221400 06004KT 5SM BR VCSH OVC008
     FM221800 08007KT P6SM OVC015
     FM222000 10007KT P6SM BKN025
     FM230200 07005KT 4SM BR OVC012
     FM230700 08004KT 3SM BR OVC004=

USA.gov is the U.S. government's official web portal to all federal, state and local government web resources and services.